Tropical Cyclones
[Index]
Main Index Home Page Stock Weather Photos Extreme Storms Discussion Storm News and Storm Chasing Reports Tropical Cyclones / Hurricanes / Typhoons Weather Data and Links Wild Fires / Bushfires Weather Observation Techniques Weather Picture Catalogue Tornado Pictures and Reports Stock Video Footage and DVDs for sale
Season 1948-1949 Tropical Cyclone 194916 Track Map
Season 1948-1949 Summaries: [BoM-AU] [JTWC-AU] [JTWC-SIO] [JTWC-SPAC] [JTWC-SH]
<<- Previous TC | JTWC 1948-1949 Season | Next TC ->>

click for intensity scale information  Lat/long Grid: Show Hide

 Date Labels: Show Hide

Joint Typhoon Warning Centre Cyclone Data

Name: 194916
Number: 99 / 4916

15 Feb 1949 18:00 UTC to 28 Feb 1949 06:00 UTC

    date/time    lat    long     hPa   cat  kts
1949-02-15 18   13.7    54.0                              
1949-02-16 00   13.8    53.5                              
1949-02-16 06   14.0    53.1                              
1949-02-16 12   14.2    52.8                              
1949-02-16 18   14.5    52.5                              
1949-02-17 00   14.6    52.4                              
1949-02-17 06   14.7    52.3                              
1949-02-17 12   14.9    52.0                              
1949-02-17 18   15.2    51.7                              
1949-02-18 00   15.4    51.5                              
1949-02-18 06   15.6    51.3                              
1949-02-18 12   16.0    51.0                              
1949-02-18 18   16.5    50.6                              
1949-02-19 00   17.1    50.2                              
1949-02-19 06   17.6    49.8                              
1949-02-19 12   18.0    49.5                              
1949-02-19 18   18.4    49.3                              
1949-02-20 00   18.9    49.1                              
1949-02-20 06   19.3    49.0                              
1949-02-20 12   19.7    48.9                              
1949-02-20 18   20.0    48.8                              
1949-02-21 00   20.4    48.7                              
1949-02-21 06   20.6    48.6                              
1949-02-21 12   20.7    48.6                              
1949-02-21 18   20.8    48.6                              
1949-02-22 00   20.9    48.5                              
1949-02-22 06   21.0    48.5                              
1949-02-22 12   21.1    48.5                              
1949-02-22 18   21.1    48.5                              
1949-02-23 00   21.1    48.5                              
1949-02-23 06   21.2    48.5                              
1949-02-23 12   21.6    48.5                              
1949-02-23 18   22.2    48.5                              
1949-02-24 00   22.6    48.5                              
1949-02-24 06   23.0    48.4                              
1949-02-24 12   23.6    48.0                              
1949-02-24 18   24.2    47.4                              
1949-02-25 00   24.5    46.5                              
1949-02-25 06   24.9    45.7                              
1949-02-25 12   25.9    45.4                              
1949-02-25 18   27.0    45.4                              
1949-02-26 00   28.1    45.6                              
1949-02-26 06   29.2    45.8                              
1949-02-26 12   30.2    45.7                              
1949-02-26 18   31.2    45.7                              
1949-02-27 00   31.9    46.5                              
1949-02-27 06   32.6    47.4                              
1949-02-27 12   33.5    48.0                              
1949-02-27 18   34.6    48.6                              
1949-02-28 00   35.7    49.3                              
1949-02-28 06   36.9    50.1                              
Winds are 1-min average.

Tropical cyclone tracks developed by Michael Bath using data from the Joint Typhoon Warning Centre Best Tracks and Google Maps.


[Australian Severe Weather index] [Copyright Notice] [Email Contacts] [Search This Site] [Privacy Policy]
Document: tropical_cyclone_194916.htm Updated: 18 September 2016